Aviation Digital Data Service (ADDS)

Output produced by METARs form (1624 UTC 30 October 2020)
found at http://www.aviationweather.gov/metar/data/
 
KCHS 301556Z 29010KT 10SM CLR 19/10 A2999 RMK AO2 SLP153 T01940100
KCHS 301328Z 3013/3112 29013G20KT P6SM SKC 
     FM301700 32010KT P6SM SKC 
     FM310000 36006KT P6SM SKC